createdAt,value
2024-01-20T00:02:15.184Z,28.23
2024-01-20T00:04:43.234Z,22.50
2024-01-20T00:07:12.553Z,26.43
2024-01-20T00:09:49.639Z,34.33
2024-01-20T00:12:19.216Z,24.90
2024-01-20T00:14:47.378Z,25.37
2024-01-20T00:17:23.672Z,28.40
2024-01-20T00:19:55.887Z,28.37
2024-01-20T00:22:25.804Z,33.47
2024-01-20T00:24:53.960Z,27.77
2024-01-20T00:27:22.257Z,25.10
2024-01-20T00:29:50.404Z,32.10
2024-01-20T00:32:18.918Z,33.57
2024-01-20T00:34:59.078Z,31.60
2024-01-20T00:37:35.442Z,31.73
2024-01-20T00:40:04.078Z,32.37
2024-01-20T00:42:32.082Z,32.83
2024-01-20T00:45:00.388Z,29.47
2024-01-20T00:47:28.266Z,26.90
2024-01-20T00:49:56.499Z,35.00
2024-01-20T00:52:24.481Z,29.70
2024-01-20T00:54:54.349Z,28.03
2024-01-20T00:57:22.093Z,26.50
2024-01-20T00:59:50.997Z,31.03
2024-01-20T01:02:20.153Z,32.83
2024-01-20T01:04:48.230Z,26.27
2024-01-20T01:07:16.465Z,27.27
2024-01-20T01:09:44.236Z,27.47
2024-01-20T01:12:13.770Z,25.53
2024-01-20T01:14:41.522Z,27.47
2024-01-20T01:17:09.841Z,24.77
2024-01-20T01:19:37.696Z,27.80
2024-01-20T01:22:06.188Z,25.60
2024-01-20T01:24:33.908Z,25.63
2024-01-20T01:27:02.220Z,25.53
2024-01-20T01:29:31.543Z,28.93
2024-01-20T01:31:59.396Z,25.87
2024-01-20T01:34:27.370Z,28.40
2024-01-20T01:36:55.113Z,29.53
2024-01-20T01:39:23.077Z,26.57
2024-01-20T01:41:51.044Z,25.90
2024-01-20T01:44:18.708Z,26.50
2024-01-20T01:46:48.247Z,29.83
2024-01-20T01:49:16.386Z,25.50
2024-01-20T01:51:45.637Z,26.43
2024-01-20T01:54:14.150Z,26.03
2024-01-20T01:56:44.048Z,29.07
2024-01-20T01:59:11.972Z,32.40
2024-01-20T02:01:39.889Z,30.43
2024-01-20T02:04:09.283Z,26.53
2024-01-20T02:06:37.221Z,26.87
2024-01-20T02:09:05.623Z,28.27
2024-01-20T02:11:33.730Z,33.27
2024-01-20T02:14:01.975Z,29.80
2024-01-20T02:16:30.012Z,32.80
2024-01-20T02:19:03.595Z,30.90
2024-01-20T02:21:33.657Z,29.47
2024-01-20T02:24:06.926Z,29.37
2024-01-20T02:26:34.658Z,32.87
2024-01-20T02:29:03.157Z,27.20
2024-01-20T02:31:31.281Z,25.57
2024-01-20T02:33:59.360Z,30.97
2024-01-20T02:36:27.253Z,34.67
2024-01-20T02:38:54.954Z,32.27
2024-01-20T02:41:24.053Z,32.67
2024-01-20T02:43:52.281Z,33.97
2024-01-20T02:46:20.108Z,28.70
2024-01-20T02:48:47.953Z,29.90
2024-01-20T02:51:15.986Z,26.97
2024-01-20T02:53:44.087Z,26.97
2024-01-20T02:56:11.966Z,26.30
2024-01-20T02:58:41.026Z,32.53
2024-01-20T03:01:09.235Z,26.03
2024-01-20T03:03:37.477Z,31.33
2024-01-20T03:06:06.848Z,25.60
2024-01-20T03:08:37.338Z,23.20
2024-01-20T03:11:05.843Z,25.10
2024-01-20T03:13:33.976Z,27.23
2024-01-20T03:16:03.017Z,33.10
2024-01-20T03:18:30.919Z,28.17
2024-01-20T03:20:59.112Z,34.67
2024-01-20T03:23:27.205Z,29.57
2024-01-20T03:25:54.868Z,27.87
2024-01-20T03:28:22.947Z,31.53
2024-01-20T03:30:51.058Z,27.97
2024-01-20T03:33:20.211Z,29.70
2024-01-20T03:35:48.172Z,28.23
2024-01-20T03:38:16.062Z,33.57
2024-01-20T03:40:44.997Z,28.33
2024-01-20T03:43:13.194Z,29.27
2024-01-20T03:45:42.101Z,28.43
2024-01-20T03:48:09.929Z,30.60
2024-01-20T03:50:39.558Z,30.90
2024-01-20T03:53:08.653Z,29.17
2024-01-20T03:55:36.835Z,36.53
2024-01-20T03:58:06.343Z,30.93
2024-01-20T04:00:34.271Z,34.03
2024-01-20T04:03:04.121Z,47.00
2024-01-20T04:05:32.019Z,30.87
2024-01-20T04:08:01.000Z,28.90
2024-01-20T04:10:29.064Z,28.67
2024-01-20T04:12:56.730Z,31.43
2024-01-20T04:15:24.816Z,32.47
2024-01-20T04:17:53.864Z,32.53
2024-01-20T04:20:21.825Z,30.50
2024-01-20T04:22:49.579Z,35.40
2024-01-20T04:25:18.930Z,33.77
2024-01-20T04:27:46.747Z,30.63
2024-01-20T04:30:15.389Z,35.33
2024-01-20T04:32:43.678Z,30.57
2024-01-20T04:35:12.177Z,36.80
2024-01-20T04:37:41.079Z,36.40
2024-01-20T04:40:09.910Z,35.00
2024-01-20T04:42:39.044Z,33.13
2024-01-20T04:45:08.273Z,36.03
2024-01-20T04:47:36.075Z,35.27
2024-01-20T04:50:04.252Z,31.43
2024-01-20T04:52:32.144Z,39.80
2024-01-20T04:54:59.936Z,31.73
2024-01-20T04:57:28.042Z,37.17
2024-01-20T04:59:57.082Z,35.30
2024-01-20T05:02:25.095Z,41.10
2024-01-20T05:04:52.833Z,38.93
2024-01-20T05:07:20.884Z,35.53
2024-01-20T05:09:48.876Z,32.83
2024-01-20T05:12:16.675Z,39.40
2024-01-20T05:14:44.552Z,46.93
2024-01-20T05:17:13.982Z,35.40
2024-01-20T05:19:42.083Z,34.67
2024-01-20T05:22:09.933Z,33.73
2024-01-20T05:24:37.656Z,36.13
2024-01-20T05:27:06.289Z,40.27
2024-01-20T05:29:34.255Z,36.20
2024-01-20T05:32:02.431Z,43.90
2024-01-20T05:34:31.696Z,35.80
2024-01-20T05:36:59.990Z,33.23
2024-01-20T05:39:27.887Z,37.53
2024-01-20T05:41:55.927Z,32.33
2024-01-20T05:44:23.706Z,39.30
2024-01-20T05:46:52.030Z,39.50
2024-01-20T05:49:19.922Z,32.80
2024-01-20T05:51:49.215Z,35.87
2024-01-20T05:54:16.889Z,42.87
2024-01-20T05:56:44.694Z,37.47
2024-01-20T05:59:12.682Z,42.83
2024-01-20T06:01:40.685Z,40.87
2024-01-20T06:04:11.633Z,42.77
2024-01-20T06:06:40.061Z,36.43
2024-01-20T06:09:09.727Z,38.70
2024-01-20T06:11:37.632Z,39.47
2024-01-20T06:14:05.633Z,41.83
2024-01-20T06:16:34.959Z,45.30
2024-01-20T06:19:02.778Z,36.63
2024-01-20T06:21:30.757Z,41.33
2024-01-20T06:23:58.935Z,34.50
2024-01-20T06:26:28.215Z,39.50
2024-01-20T06:28:55.852Z,38.10
2024-01-20T06:31:28.907Z,43.30
2024-01-20T06:33:57.084Z,39.43
2024-01-20T06:36:26.786Z,37.30
2024-01-20T06:38:54.966Z,44.33
2024-01-20T06:41:23.133Z,42.23
2024-01-20T06:43:52.686Z,40.97
2024-01-20T06:46:20.568Z,37.43
2024-01-20T06:48:48.614Z,42.07
2024-01-20T06:51:17.225Z,38.90
2024-01-20T06:53:45.556Z,41.70
2024-01-20T06:56:13.416Z,42.13
2024-01-20T06:58:41.732Z,44.83
2024-01-20T07:01:12.080Z,41.30
2024-01-20T07:03:40.397Z,39.43
2024-01-20T07:06:10.839Z,36.47
2024-01-20T07:08:39.039Z,36.70
2024-01-20T07:11:09.832Z,40.30
2024-01-20T07:13:38.275Z,38.97
2024-01-20T07:16:12.380Z,38.47
2024-01-20T07:18:40.797Z,37.90
2024-01-20T07:21:09.073Z,43.57
2024-01-20T07:23:38.144Z,43.33
2024-01-20T07:26:06.027Z,37.90
2024-01-20T07:28:33.992Z,39.17
2024-01-20T07:31:01.826Z,39.93
2024-01-20T07:33:31.093Z,47.30
2024-01-20T07:35:59.058Z,42.87
2024-01-20T07:38:29.774Z,43.73
2024-01-20T07:41:00.534Z,44.20
2024-01-20T07:43:28.476Z,41.23
2024-01-20T07:45:58.029Z,41.70
2024-01-20T07:48:27.806Z,45.50
2024-01-20T07:50:57.396Z,46.30
2024-01-20T07:53:29.341Z,38.63
2024-01-20T07:55:57.212Z,44.33
2024-01-20T07:58:25.167Z,38.60
2024-01-20T08:00:53.094Z,46.83
2024-01-20T08:03:20.957Z,42.27
2024-01-20T08:05:48.797Z,42.27
2024-01-20T08:08:18.537Z,46.03
2024-01-20T08:10:46.477Z,46.13
2024-01-20T08:13:14.484Z,39.10
2024-01-20T08:15:42.695Z,42.00
2024-01-20T08:18:11.996Z,41.47
2024-01-20T08:20:39.996Z,47.03
2024-01-20T08:23:07.785Z,38.43
2024-01-20T08:25:37.026Z,35.47
2024-01-20T08:28:05.557Z,41.60
2024-01-20T08:30:33.413Z,51.00
2024-01-20T08:33:04.257Z,45.50
2024-01-20T08:35:33.095Z,44.77
2024-01-20T08:38:00.897Z,48.00
2024-01-20T08:40:28.825Z,43.40
2024-01-20T08:42:58.236Z,52.50
2024-01-20T08:45:26.019Z,46.10
2024-01-20T08:47:54.123Z,45.97
2024-01-20T08:50:22.126Z,46.70
2024-01-20T08:52:50.302Z,50.43
2024-01-20T08:55:18.205Z,43.40
2024-01-20T08:57:46.170Z,42.30
2024-01-20T09:00:18.235Z,45.43
2024-01-20T09:02:47.660Z,42.97
2024-01-20T09:05:18.688Z,51.50
2024-01-20T09:07:46.764Z,45.07
2024-01-20T09:10:14.751Z,44.57
2024-01-20T09:12:43.055Z,43.93
2024-01-20T09:15:12.204Z,44.93
2024-01-20T09:17:41.606Z,44.70
2024-01-20T09:20:11.622Z,44.37
2024-01-20T09:22:39.558Z,44.07
2024-01-20T09:25:08.260Z,45.70
2024-01-20T09:27:36.239Z,46.10
2024-01-20T09:30:06.142Z,45.40
2024-01-20T09:32:35.869Z,41.40
2024-01-20T09:35:05.594Z,46.33
2024-01-20T09:37:33.764Z,48.43
2024-01-20T09:40:05.597Z,45.97
2024-01-20T09:42:33.838Z,48.50
2024-01-20T09:45:03.148Z,44.13
2024-01-20T09:47:31.345Z,44.37
2024-01-20T09:50:00.128Z,47.10
2024-01-20T09:52:35.519Z,39.97
2024-01-20T09:55:20.175Z,45.30
2024-01-20T09:57:49.623Z,48.47
2024-01-20T10:00:18.703Z,51.83
2024-01-20T10:02:47.294Z,49.17
2024-01-20T10:05:20.693Z,46.27
2024-01-20T10:07:50.082Z,42.00
2024-01-20T10:10:23.581Z,51.50
2024-01-20T10:12:52.826Z,43.57
2024-01-20T10:15:24.197Z,49.03
2024-01-20T10:17:52.363Z,46.03
2024-01-20T10:20:21.570Z,45.20
2024-01-20T10:22:52.112Z,50.67
2024-01-20T10:25:21.401Z,46.07
2024-01-20T10:27:50.230Z,45.93
2024-01-20T10:30:21.272Z,44.87
2024-01-20T10:33:03.329Z,49.23
2024-01-20T10:35:37.066Z,45.20
2024-01-20T10:38:11.806Z,44.40
2024-01-20T10:40:42.258Z,50.33
2024-01-20T10:43:14.723Z,43.87
2024-01-20T10:45:47.192Z,44.37
2024-01-20T10:48:22.684Z,40.37
2024-01-20T10:50:55.653Z,45.50
2024-01-20T10:53:27.201Z,36.93
2024-01-20T10:55:56.015Z,38.67
2024-01-20T10:58:29.722Z,42.37
2024-01-20T11:00:58.495Z,42.70
2024-01-20T11:03:26.623Z,36.93
2024-01-20T11:05:54.857Z,41.67
2024-01-20T11:08:28.088Z,42.77
2024-01-20T11:10:56.794Z,48.03
2024-01-20T11:13:28.679Z,43.43
2024-01-20T11:15:59.318Z,39.83
2024-01-20T11:18:28.292Z,38.97
2024-01-20T11:21:00.864Z,38.90
2024-01-20T11:23:30.441Z,38.50
2024-01-20T11:26:00.309Z,39.17
2024-01-20T11:28:33.255Z,42.17
2024-01-20T11:31:01.710Z,38.77
2024-01-20T11:33:29.717Z,41.73
2024-01-20T11:35:57.767Z,43.00
2024-01-20T11:38:25.613Z,40.63
2024-01-20T11:41:02.092Z,46.83
2024-01-20T11:43:30.601Z,41.23
2024-01-20T11:45:58.881Z,37.73
2024-01-20T11:48:28.255Z,44.90
2024-01-20T11:50:56.409Z,44.43
2024-01-20T11:53:24.409Z,42.93
2024-01-20T11:55:56.683Z,43.83
2024-01-20T11:58:26.153Z,36.43
2024-01-20T12:00:56.480Z,36.80
2024-01-20T12:03:24.808Z,38.50
2024-01-20T12:05:53.281Z,38.23
2024-01-20T12:08:22.629Z,39.47
2024-01-20T12:10:51.599Z,34.93
2024-01-20T12:13:19.524Z,36.43
2024-01-20T12:15:51.784Z,36.93
2024-01-20T12:18:22.390Z,39.60
2024-01-20T12:20:50.217Z,39.73
2024-01-20T12:23:22.951Z,38.83
2024-01-20T12:25:54.634Z,35.83
2024-01-20T12:28:23.115Z,38.07
2024-01-20T12:30:52.247Z,39.67
2024-01-20T12:33:20.523Z,37.20
2024-01-20T12:35:48.370Z,34.13
2024-01-20T12:38:16.592Z,33.27
2024-01-20T12:40:44.370Z,35.87
2024-01-20T12:43:13.389Z,34.17
2024-01-20T12:45:41.210Z,43.07
2024-01-20T12:48:10.809Z,36.23
2024-01-20T12:50:38.599Z,35.57
2024-01-20T12:53:07.975Z,35.33
2024-01-20T12:55:35.979Z,30.13
2024-01-20T12:58:04.429Z,32.07
2024-01-20T13:00:32.385Z,32.97
2024-01-20T13:03:00.489Z,30.23
2024-01-20T13:05:30.332Z,32.93
2024-01-20T13:07:58.250Z,31.83
2024-01-20T13:10:26.620Z,34.50
2024-01-20T13:12:54.354Z,32.43
2024-01-20T13:15:24.974Z,31.50
2024-01-20T13:17:53.181Z,33.93
2024-01-20T13:20:22.087Z,34.23
2024-01-20T13:22:51.407Z,29.23
2024-01-20T13:25:19.682Z,31.33
2024-01-20T13:27:47.772Z,31.10
2024-01-20T13:30:16.786Z,34.33
2024-01-20T13:32:45.023Z,34.30
2024-01-20T13:35:13.145Z,31.43
2024-01-20T13:37:40.998Z,30.00
2024-01-20T13:40:11.582Z,31.67
2024-01-20T13:42:43.804Z,34.90
2024-01-20T13:45:12.088Z,33.30
2024-01-20T13:47:40.456Z,37.50
2024-01-20T13:50:08.980Z,28.20
2024-01-20T13:52:37.214Z,29.30
2024-01-20T13:55:10.398Z,33.90
2024-01-20T13:57:38.436Z,34.63
2024-01-20T14:00:07.314Z,33.40
2024-01-20T14:02:35.971Z,30.60
2024-01-20T14:05:04.452Z,34.10
2024-01-20T14:07:32.737Z,35.20
2024-01-20T14:10:00.923Z,31.10
2024-01-20T14:12:30.839Z,31.43
2024-01-20T14:14:58.689Z,33.50
2024-01-20T14:17:27.020Z,33.53
2024-01-20T14:19:55.140Z,33.97
2024-01-20T14:22:24.195Z,33.23
2024-01-20T14:24:52.667Z,29.97
2024-01-20T14:27:20.955Z,29.93
2024-01-20T14:29:50.448Z,32.93
2024-01-20T14:32:18.608Z,29.47
2024-01-20T14:34:46.715Z,32.97
2024-01-20T14:37:14.715Z,37.80
2024-01-20T14:39:43.118Z,29.40
2024-01-20T14:42:11.295Z,32.20
2024-01-20T14:44:39.510Z,33.43
2024-01-20T14:47:09.647Z,32.13
2024-01-20T14:49:37.457Z,31.50
2024-01-20T14:52:06.469Z,31.37
2024-01-20T14:54:34.353Z,30.50
2024-01-20T14:57:04.697Z,32.00
2024-01-20T14:59:32.768Z,32.07
2024-01-20T15:02:00.527Z,32.83
2024-01-20T15:04:30.462Z,35.40
2024-01-20T15:07:01.270Z,37.00
2024-01-20T15:09:30.517Z,41.73
2024-01-20T15:12:00.702Z,34.97
2024-01-20T15:14:28.637Z,34.03
2024-01-20T15:16:56.885Z,38.37
2024-01-20T15:19:25.043Z,39.03
2024-01-20T15:21:55.210Z,32.53
2024-01-20T15:24:23.074Z,38.87
2024-01-20T15:26:50.897Z,33.50
2024-01-20T15:29:22.770Z,35.07
2024-01-20T15:31:50.689Z,34.30
2024-01-20T15:34:19.137Z,36.73
2024-01-20T15:36:47.301Z,36.60
2024-01-20T15:39:17.367Z,36.50
2024-01-20T15:41:47.248Z,36.50
2024-01-20T15:44:15.505Z,37.63
2024-01-20T15:46:43.514Z,35.80
2024-01-20T15:49:11.625Z,39.10
2024-01-20T15:51:39.747Z,35.63
2024-01-20T15:54:07.718Z,37.10
2024-01-20T15:56:43.128Z,40.90
2024-01-20T15:59:11.026Z,33.53
2024-01-20T16:01:39.232Z,40.50
2024-01-20T16:04:07.293Z,36.40
2024-01-20T16:06:35.220Z,38.07
2024-01-20T16:09:07.182Z,43.33
2024-01-20T16:11:34.989Z,38.00
2024-01-20T16:14:06.851Z,44.20
2024-01-20T16:16:34.653Z,40.97
2024-01-20T16:19:02.789Z,44.30
2024-01-20T16:21:30.846Z,42.50
2024-01-20T16:23:58.669Z,39.90
2024-01-20T16:26:26.398Z,36.60
2024-01-20T16:28:54.733Z,44.70
2024-01-20T16:31:24.134Z,45.13
2024-01-20T16:33:51.974Z,45.53
2024-01-20T16:36:20.621Z,40.77
2024-01-20T16:38:48.483Z,43.97
2024-01-20T16:41:16.329Z,48.57
2024-01-20T16:43:44.482Z,41.17
2024-01-20T16:46:12.361Z,42.90
2024-01-20T16:48:41.912Z,44.60
2024-01-20T16:51:15.453Z,44.50
2024-01-20T16:53:52.309Z,40.07
2024-01-20T16:56:23.012Z,45.60
2024-01-20T16:58:51.329Z,50.20
2024-01-20T17:01:18.776Z,50.53
2024-01-20T17:03:47.904Z,43.40
2024-01-20T17:06:19.652Z,45.37
2024-01-20T17:08:47.636Z,51.40
2024-01-20T17:11:16.051Z,40.60
2024-01-20T17:13:44.992Z,44.00
2024-01-20T17:16:13.046Z,39.23
2024-01-20T17:18:40.908Z,40.87
2024-01-20T17:21:18.669Z,41.97
2024-01-20T17:23:46.754Z,35.87
2024-01-20T17:26:14.728Z,43.90
2024-01-20T17:28:43.003Z,47.20
2024-01-20T17:31:11.324Z,47.40
2024-01-20T17:33:39.406Z,35.27
2024-01-20T17:36:08.556Z,37.00
2024-01-20T17:38:37.836Z,42.13
2024-01-20T17:41:06.224Z,37.07
2024-01-20T17:43:34.166Z,33.63
2024-01-20T17:46:02.085Z,39.47
2024-01-20T17:48:32.322Z,32.70
2024-01-20T17:51:00.574Z,32.30
2024-01-20T17:53:34.700Z,44.30
2024-01-20T17:56:05.231Z,41.67
2024-01-20T17:58:34.268Z,45.77
2024-01-20T18:01:02.696Z,53.53
2024-01-20T18:03:31.019Z,41.80
2024-01-20T18:05:59.192Z,43.37
2024-01-20T18:08:27.752Z,38.50
2024-01-20T18:10:56.257Z,44.40
2024-01-20T18:13:25.515Z,51.07
2024-01-20T18:15:53.627Z,53.77
2024-01-20T18:18:21.648Z,54.07
2024-01-20T18:20:49.715Z,50.30
2024-01-20T18:23:17.615Z,48.13
2024-01-20T18:25:45.790Z,39.20
2024-01-20T18:28:14.385Z,37.53
2024-01-20T18:30:44.899Z,31.40
2024-01-20T18:33:14.081Z,44.43
2024-01-20T18:35:42.637Z,43.70
2024-01-20T18:38:11.422Z,41.23
2024-01-20T18:40:40.366Z,36.40
2024-01-20T18:43:08.441Z,35.93
2024-01-20T18:45:36.321Z,41.27
2024-01-20T18:48:08.064Z,35.53
2024-01-20T18:50:36.240Z,41.30
2024-01-20T18:53:04.208Z,45.97
2024-01-20T18:55:32.668Z,44.43
2024-01-20T18:58:00.482Z,46.33
2024-01-20T19:00:28.547Z,42.70
2024-01-20T19:02:56.930Z,46.00
2024-01-20T19:05:26.640Z,37.90
2024-01-20T19:07:54.907Z,39.53
2024-01-20T19:10:25.795Z,43.50
2024-01-20T19:12:53.585Z,37.73
2024-01-20T19:15:22.049Z,34.13
2024-01-20T19:17:51.415Z,35.10
2024-01-20T19:20:22.176Z,37.17
2024-01-20T19:22:51.327Z,35.93
2024-01-20T19:25:19.366Z,41.43
2024-01-20T19:27:47.136Z,43.50
2024-01-20T19:30:15.281Z,39.23
2024-01-20T19:32:43.919Z,39.63
2024-01-20T19:35:11.717Z,70.43
2024-01-20T19:37:39.497Z,81.17
2024-01-20T19:40:13.646Z,61.77
2024-01-20T19:42:41.415Z,54.50
2024-01-20T19:45:09.653Z,57.63
2024-01-20T19:47:38.387Z,48.73
2024-01-20T19:50:08.924Z,48.67
2024-01-20T19:52:37.846Z,53.73
2024-01-20T19:55:09.106Z,52.93
2024-01-20T19:57:39.594Z,52.43
2024-01-20T20:00:10.650Z,68.03
2024-01-20T20:02:41.894Z,71.43
2024-01-20T20:05:09.730Z,55.40
2024-01-20T20:07:37.573Z,49.20
2024-01-20T20:10:06.117Z,38.00
2024-01-20T20:12:35.561Z,45.10
2024-01-20T20:15:05.621Z,51.70
2024-01-20T20:17:35.109Z,49.90
2024-01-20T20:20:04.926Z,57.80
2024-01-20T20:22:33.900Z,48.10
2024-01-20T20:25:02.051Z,44.13
2024-01-20T20:27:30.302Z,45.50
2024-01-20T20:30:00.056Z,49.73
2024-01-20T20:32:28.644Z,44.57
2024-01-20T20:34:58.495Z,43.90
2024-01-20T20:37:26.664Z,49.17
2024-01-20T20:39:55.080Z,43.43
2024-01-20T20:42:23.255Z,43.50
2024-01-20T20:44:52.669Z,49.37
2024-01-20T20:47:22.142Z,36.63
2024-01-20T20:49:51.563Z,35.80
2024-01-20T20:52:19.782Z,38.83
2024-01-20T20:54:48.486Z,44.43
2024-01-20T20:57:16.656Z,43.17
2024-01-20T20:59:45.912Z,33.90
2024-01-20T21:02:14.200Z,45.63
2024-01-20T21:04:43.384Z,39.00
2024-01-20T21:07:11.315Z,46.37
2024-01-20T21:09:40.858Z,38.87
2024-01-20T21:12:10.102Z,43.57
2024-01-20T21:14:40.203Z,46.73
2024-01-20T21:17:08.910Z,47.57
2024-01-20T21:19:36.943Z,42.70
2024-01-20T21:22:07.516Z,44.93
2024-01-20T21:24:35.513Z,47.83
2024-01-20T21:27:03.285Z,41.40
2024-01-20T21:29:31.976Z,45.07
2024-01-20T21:31:59.704Z,53.73
2024-01-20T21:34:27.723Z,36.70
2024-01-20T21:36:56.237Z,44.43
2024-01-20T21:39:26.187Z,48.23
2024-01-20T21:41:53.959Z,39.67
2024-01-20T21:44:21.792Z,42.23
2024-01-20T21:46:49.836Z,39.13
2024-01-20T21:49:17.711Z,38.97
2024-01-20T21:51:45.792Z,46.63
2024-01-20T21:54:15.253Z,37.10
2024-01-20T21:56:44.617Z,41.70
2024-01-20T21:59:12.405Z,38.73
2024-01-20T22:01:41.284Z,33.80
2024-01-20T22:04:11.436Z,35.73
2024-01-20T22:06:41.792Z,37.73
2024-01-20T22:09:10.849Z,33.37
2024-01-20T22:11:38.872Z,31.10
2024-01-20T22:14:08.332Z,32.33
2024-01-20T22:16:36.840Z,32.00
2024-01-20T22:19:04.868Z,36.27
2024-01-20T22:21:33.064Z,33.40
2024-01-20T22:24:01.102Z,32.43
2024-01-20T22:26:28.923Z,35.50
2024-01-20T22:28:58.133Z,34.30
2024-01-20T22:31:27.640Z,41.43
2024-01-20T22:33:57.617Z,46.27
2024-01-20T22:36:25.431Z,40.43
2024-01-20T22:38:53.246Z,46.47
2024-01-20T22:41:21.525Z,41.20
2024-01-20T22:43:49.324Z,46.33
2024-01-20T22:46:18.742Z,45.67
2024-01-20T22:48:48.502Z,42.07
2024-01-20T22:51:21.608Z,40.33
2024-01-20T22:53:50.623Z,42.83
2024-01-20T22:56:18.590Z,42.47
2024-01-20T22:58:47.169Z,45.43
2024-01-20T23:01:17.267Z,42.43
2024-01-20T23:03:45.902Z,43.43
2024-01-20T23:06:15.187Z,39.23
2024-01-20T23:08:43.535Z,39.43
2024-01-20T23:11:11.360Z,38.63
2024-01-20T23:13:39.108Z,42.73
2024-01-20T23:16:08.205Z,42.80
2024-01-20T23:18:36.512Z,43.13
2024-01-20T23:21:05.329Z,34.17
2024-01-20T23:23:34.535Z,40.17
2024-01-20T23:26:02.528Z,33.33
2024-01-20T23:28:30.384Z,43.97
2024-01-20T23:30:58.300Z,40.20
2024-01-20T23:33:26.830Z,32.90
2024-01-20T23:35:54.678Z,34.10
2024-01-20T23:38:22.637Z,37.97
2024-01-20T23:40:51.807Z,34.53
2024-01-20T23:43:24.162Z,41.73
2024-01-20T23:45:51.966Z,41.63
2024-01-20T23:48:20.221Z,38.03
2024-01-20T23:50:49.555Z,37.37
2024-01-20T23:53:17.924Z,37.93
2024-01-20T23:55:45.691Z,33.70
2024-01-20T23:58:15.306Z,41.27
